Time;durP1;ratioP1;P1;durP2;ratioP2;P2;SDS_P1;SDS_P2;PMS_P1;PMS_P2;Temp;Humidity;BMP_temperature;BMP_pressure;BME280_temperature;BME280_humidity;BME280_pressure;Samples;Min_cycle;Max_cycle;Signal;HPM_P1;HPM_P2
2021/11/13 00:02:08;;;;;;;87.18;40.95;;;;;;;;;;4962468;28;20110;-59
2021/11/13 00:04:34;;;;;;;84.03;39.05;;;;;;;;;;4960946;28;20062;-59
2021/11/13 00:06:59;;;;;;;96.10;38.35;;;;;;;;;;4958969;28;20034;-59
2021/11/13 00:09:25;;;;;;;102.63;41.88;;;;;;;;;;4965188;28;20038;-58
2021/11/13 00:11:50;;;;;;;95.90;42.08;;;;;;;;;;4977944;28;20031;-59
2021/11/13 00:14:17;;;;;;;100.03;41.15;;;;;;;;;;4961680;28;20509;-58
2021/11/13 00:16:43;;;;;;;92.10;41.13;;;;;;;;;;4963910;28;20030;-58
2021/11/13 00:19:09;;;;;;;103.75;43.92;;;;;;;;;;4977653;28;20119;-59
2021/11/13 00:21:34;;;;;;;94.93;42.28;;;;;;;;;;4975640;28;20060;-59
2021/11/13 00:24:00;;;;;;;87.63;41.67;;;;;;;;;;4961426;28;20034;-58
2021/11/13 00:26:25;;;;;;;94.28;43.50;;;;;;;;;;4964530;28;20579;-59
2021/11/13 00:28:51;;;;;;;96.28;42.15;;;;;;;;;;4963728;28;20450;-58
2021/11/13 00:31:16;;;;;;;82.43;39.33;;;;;;;;;;4962089;28;20058;-59
2021/11/13 00:33:42;;;;;;;78.60;37.72;;;;;;;;;;4960363;28;20035;-59
2021/11/13 00:36:07;;;;;;;179.45;74.93;;;;;;;;;;4963168;28;20038;-59
2021/11/13 00:38:33;;;;;;;107.70;49.28;;;;;;;;;;4964136;28;20030;-59
2021/11/13 00:40:58;;;;;;;90.90;45.50;;;;;;;;;;4980134;28;20389;-58
2021/11/13 00:43:26;;;;;;;83.32;38.85;;;;;;;;;;4964089;28;20031;-59
2021/11/13 00:45:52;;;;;;;71.35;32.70;;;;;;;;;;4963999;28;20023;-58
2021/11/13 00:48:18;;;;;;;68.30;29.65;;;;;;;;;;4969116;28;20026;-58
2021/11/13 00:50:43;;;;;;;96.35;40.33;;;;;;;;;;4966347;28;20042;-57
2021/11/13 00:53:09;;;;;;;129.38;54.17;;;;;;;;;;4970259;28;20398;-58
2021/11/13 00:55:34;;;;;;;79.20;34.28;;;;;;;;;;4966997;28;20027;-58
2021/11/13 00:58:00;;;;;;;85.88;36.17;;;;;;;;;;4967137;28;20026;-57
2021/11/13 01:00:25;;;;;;;69.85;31.90;;;;;;;;;;4963968;28;20113;-58
2021/11/13 01:02:52;;;;;;;96.20;42.60;;;;;;;;;;4967721;28;20470;-57
2021/11/13 01:05:18;;;;;;;81.80;36.90;;;;;;;;;;4982146;28;20034;-58
2021/11/13 01:07:45;;;;;;;76.28;33.83;;;;;;;;;;4965160;28;20033;-57
2021/11/13 01:10:12;;;;;;;72.85;33.60;;;;;;;;;;4962497;28;20034;-57
2021/11/13 01:12:38;;;;;;;89.75;37.30;;;;;;;;;;4963324;28;20031;-58
2021/11/13 01:15:06;;;;;;;79.10;35.85;;;;;;;;;;4964028;28;20565;-58
2021/11/13 01:17:31;;;;;;;82.53;37.75;;;;;;;;;;4965311;28;20038;-58
2021/11/13 01:19:57;;;;;;;82.97;36.15;;;;;;;;;;4964648;28;20023;-58
2021/11/13 01:22:23;;;;;;;78.43;35.03;;;;;;;;;;4966683;28;20045;-57
2021/11/13 01:24:48;;;;;;;94.35;41.85;;;;;;;;;;4964517;28;20098;-57
2021/11/13 01:27:15;;;;;;;83.60;38.55;;;;;;;;;;4966092;28;20453;-58
2021/11/13 01:29:41;;;;;;;77.65;36.30;;;;;;;;;;4966276;28;20022;-55
2021/11/13 01:32:07;;;;;;;83.32;36.33;;;;;;;;;;4965120;28;20034;-58
2021/11/13 01:34:33;;;;;;;84.10;38.63;;;;;;;;;;4968983;28;20038;-57
2021/11/13 01:36:59;;;;;;;80.20;35.63;;;;;;;;;;4965165;28;20120;-57
2021/11/13 01:39:25;;;;;;;77.22;34.88;;;;;;;;;;4965054;28;20034;-58
2021/11/13 01:41:54;;;;;;;69.43;32.35;;;;;;;;;;4963332;28;20030;-58
2021/11/13 01:44:19;;;;;;;74.53;34.47;;;;;;;;;;4965056;28;20050;-57
2021/11/13 01:46:45;;;;;;;71.28;32.03;;;;;;;;;;4965494;28;20482;-56
2021/11/13 01:49:10;;;;;;;80.70;38.42;;;;;;;;;;4967339;28;20026;-58
2021/11/13 01:51:38;;;;;;;89.45;42.38;;;;;;;;;;4966648;28;20038;-58
2021/11/13 01:54:07;;;;;;;80.97;38.40;;;;;;;;;;4962920;28;20026;-58
2021/11/13 01:56:35;;;;;;;79.00;36.67;;;;;;;;;;4966821;28;20077;-58
2021/11/13 01:59:02;;;;;;;78.90;35.00;;;;;;;;;;4963780;28;20090;-58
2021/11/13 02:01:28;;;;;;;72.30;33.28;;;;;;;;;;4960843;28;20394;-58
2021/11/13 02:03:54;;;;;;;77.97;32.47;;;;;;;;;;4962499;28;20043;-58
2021/11/13 02:06:21;;;;;;;70.78;31.85;;;;;;;;;;4965904;28;20414;-58
2021/11/13 02:08:47;;;;;;;73.40;33.30;;;;;;;;;;4962802;28;20033;-58
2021/11/13 02:11:15;;;;;;;70.10;33.20;;;;;;;;;;4964307;28;20161;-58
2021/11/13 02:13:41;;;;;;;72.22;34.15;;;;;;;;;;4965814;28;20813;-57
2021/11/13 02:16:08;;;;;;;77.97;33.15;;;;;;;;;;4967148;28;20066;-58
2021/11/13 02:18:35;;;;;;;75.45;35.90;;;;;;;;;;4962279;28;20042;-59
2021/11/13 02:21:01;;;;;;;77.78;35.42;;;;;;;;;;4964198;28;20425;-57
2021/11/13 02:23:26;;;;;;;66.80;31.73;;;;;;;;;;4964024;28;20042;-58
2021/11/13 02:25:53;;;;;;;75.95;34.38;;;;;;;;;;4962222;28;20034;-58
2021/11/13 02:28:21;;;;;;;73.22;35.97;;;;;;;;;;4977948;28;20033;-57
2021/11/13 02:30:48;;;;;;;69.25;30.15;;;;;;;;;;4963594;28;20125;-58
2021/11/13 02:33:14;;;;;;;67.70;32.00;;;;;;;;;;4967230;28;20022;-58
2021/11/13 02:35:41;;;;;;;69.30;32.65;;;;;;;;;;4968493;28;20054;-58
2021/11/13 02:38:19;;;;;;;64.25;29.70;;;;;;;;;;4963767;28;20042;-58
2021/11/13 02:40:50;;;;;;;71.30;32.70;;;;;;;;;;4961225;28;20039;-58
2021/11/13 02:43:17;;;;;;;74.05;33.95;;;;;;;;;;4962823;28;20118;-58
2021/11/13 02:45:45;;;;;;;72.40;31.52;;;;;;;;;;4965565;28;20029;-58
2021/11/13 02:48:11;;;;;;;74.30;33.75;;;;;;;;;;4964415;28;20027;-58
2021/11/13 02:50:37;;;;;;;69.70;33.20;;;;;;;;;;4963620;28;20023;-58
2021/11/13 02:53:10;;;;;;;83.10;36.05;;;;;;;;;;4964308;28;20062;-58
2021/11/13 02:55:35;;;;;;;93.35;40.13;;;;;;;;;;4962906;28;20134;-57
2021/11/13 02:58:01;;;;;;;85.72;37.83;;;;;;;;;;4962659;28;20466;-57
2021/11/13 03:00:28;;;;;;;73.22;34.47;;;;;;;;;;4962282;28;20541;-58
2021/11/13 03:02:53;;;;;;;68.22;30.58;;;;;;;;;;4961903;28;20026;-58
2021/11/13 03:05:27;;;;;;;70.28;32.13;;;;;;;;;;4965369;28;20122;-58
2021/11/13 03:07:55;;;;;;;57.88;26.88;;;;;;;;;;4962016;28;20045;-58
2021/11/13 03:10:23;;;;;;;56.03;25.50;;;;;;;;;;4960631;28;20110;-57
2021/11/13 03:12:49;;;;;;;55.05;25.20;;;;;;;;;;4962046;28;20042;-58
2021/11/13 03:15:16;;;;;;;47.95;23.80;;;;;;;;;;4961766;28;20030;-59
2021/11/13 03:17:42;;;;;;;56.40;26.73;;;;;;;;;;4966018;28;20022;-57
2021/11/13 03:20:10;;;;;;;55.35;28.50;;;;;;;;;;4963690;28;20446;-57
2021/11/13 03:22:38;;;;;;;61.95;28.50;;;;;;;;;;4964227;28;20123;-58
2021/11/13 03:25:17;;;;;;;67.68;31.27;;;;;;;;;;4961899;28;20031;-58
2021/11/13 03:27:45;;;;;;;69.07;28.95;;;;;;;;;;4965505;28;20022;-57
2021/11/13 03:30:12;;;;;;;60.65;28.20;;;;;;;;;;4962165;28;20461;-58
2021/11/13 03:32:37;;;;;;;62.83;30.60;;;;;;;;;;4960673;28;20402;-58
2021/11/13 03:35:05;;;;;;;70.32;32.05;;;;;;;;;;4958743;28;20038;-58
2021/11/13 03:37:30;;;;;;;64.30;30.17;;;;;;;;;;4958798;28;20031;-56
2021/11/13 03:39:56;;;;;;;64.90;29.48;;;;;;;;;;4962849;28;20120;-58
2021/11/13 03:42:24;;;;;;;56.22;27.83;;;;;;;;;;4963821;28;20042;-58
2021/11/13 03:44:50;;;;;;;59.45;27.63;;;;;;;;;;4962089;28;20035;-59
2021/11/13 03:47:16;;;;;;;57.28;26.27;;;;;;;;;;4978048;28;20037;-58
2021/11/13 03:49:41;;;;;;;57.55;25.27;;;;;;;;;;4963526;28;20398;-57
2021/11/13 03:52:07;;;;;;;54.83;24.35;;;;;;;;;;4960318;28;20034;-58
2021/11/13 03:54:33;;;;;;;52.05;24.00;;;;;;;;;;4962814;28;20031;-58
2021/11/13 03:56:59;;;;;;;48.75;23.02;;;;;;;;;;4963689;28;20042;-58
2021/11/13 03:59:26;;;;;;;46.33;21.55;;;;;;;;;;4965818;28;20093;-58
2021/11/13 04:01:52;;;;;;;52.40;24.65;;;;;;;;;;4962392;28;20022;-58
2021/11/13 04:04:18;;;;;;;52.67;25.75;;;;;;;;;;4963232;28;20094;-56
2021/11/13 04:06:43;;;;;;;59.90;26.70;;;;;;;;;;4963622;28;20089;-57
2021/11/13 04:09:09;;;;;;;60.00;28.35;;;;;;;;;;4961416;28;20030;-57
2021/11/13 04:11:34;;;;;;;57.63;27.83;;;;;;;;;;4961006;28;20035;-57
2021/11/13 04:14:00;;;;;;;57.83;26.67;;;;;;;;;;4963982;28;20042;-57
2021/11/13 04:16:25;;;;;;;56.88;26.88;;;;;;;;;;4963583;28;20386;-57
2021/11/13 04:18:51;;;;;;;53.30;26.80;;;;;;;;;;4962378;28;20034;-57
2021/11/13 04:21:17;;;;;;;56.15;28.40;;;;;;;;;;4962119;28;20505;-58
2021/11/13 04:23:43;;;;;;;60.47;28.15;;;;;;;;;;4958793;28;20034;-57
2021/11/13 04:26:09;;;;;;;59.92;28.45;;;;;;;;;;4963854;28;20146;-57
2021/11/13 04:28:34;;;;;;;64.80;27.67;;;;;;;;;;4962564;28;20577;-58
2021/11/13 04:31:00;;;;;;;51.17;25.73;;;;;;;;;;4960414;28;20403;-56
2021/11/13 04:33:26;;;;;;;62.88;26.02;;;;;;;;;;4966755;28;20058;-57
2021/11/13 04:38:32;;;;;;;52.08;22.98;;;;;;;;;;4960362;28;20450;-57
2021/11/13 04:40:59;;;;;;;55.22;25.60;;;;;;;;;;4963189;28;20062;-57
2021/11/13 04:43:24;;;;;;;63.58;26.55;;;;;;;;;;4963298;28;20037;-56
2021/11/13 04:45:50;;;;;;;68.70;31.02;;;;;;;;;;4961933;28;20031;-58
2021/11/13 04:48:15;;;;;;;60.08;28.17;;;;;;;;;;4958814;28;20035;-57
2021/11/13 04:50:41;;;;;;;57.38;26.98;;;;;;;;;;4960695;28;20030;-57
2021/11/13 04:53:06;;;;;;;53.88;26.02;;;;;;;;;;4963259;28;20482;-58
2021/11/13 04:55:32;;;;;;;53.78;26.33;;;;;;;;;;4962813;28;20049;-57
2021/11/13 04:57:58;;;;;;;53.05;24.60;;;;;;;;;;4963929;28;20110;-58
2021/11/13 05:00:26;;;;;;;50.53;25.27;;;;;;;;;;4960665;28;20077;-57
2021/11/13 05:02:53;;;;;;;53.03;24.38;;;;;;;;;;4959215;28;20482;-57
2021/11/13 05:05:18;;;;;;;53.03;24.70;;;;;;;;;;4960295;28;20034;-58
2021/11/13 05:07:44;;;;;;;51.08;25.38;;;;;;;;;;4961197;28;20033;-57
2021/11/13 05:10:11;;;;;;;45.20;24.48;;;;;;;;;;4958950;28;20033;-57
2021/11/13 05:12:37;;;;;;;48.00;24.48;;;;;;;;;;4961038;28;20093;-58
2021/11/13 05:15:04;;;;;;;46.05;23.52;;;;;;;;;;4961948;28;20118;-58
2021/11/13 05:17:30;;;;;;;49.85;24.40;;;;;;;;;;4966335;28;20069;-58
2021/11/13 05:19:55;;;;;;;47.78;24.27;;;;;;;;;;4960888;28;20039;-58
2021/11/13 05:22:21;;;;;;;49.75;24.98;;;;;;;;;;4962721;28;20341;-57
2021/11/13 05:24:46;;;;;;;50.22;25.13;;;;;;;;;;4961246;28;20023;-58
2021/11/13 05:27:12;;;;;;;55.83;25.35;;;;;;;;;;4966369;28;20366;-58
2021/11/13 05:29:38;;;;;;;50.45;25.35;;;;;;;;;;4966365;28;20118;-57
2021/11/13 05:32:04;;;;;;;52.85;26.55;;;;;;;;;;4963967;28;20058;-58
2021/11/13 05:34:29;;;;;;;48.88;24.85;;;;;;;;;;4964078;28;20052;-59
2021/11/13 05:36:55;;;;;;;49.70;24.55;;;;;;;;;;4965542;28;20465;-57
2021/11/13 05:39:20;;;;;;;47.17;24.85;;;;;;;;;;4962489;28;20038;-58
2021/11/13 05:41:46;;;;;;;52.05;24.58;;;;;;;;;;4967490;28;20508;-58
2021/11/13 05:44:11;;;;;;;53.78;25.40;;;;;;;;;;4964432;28;20071;-58
2021/11/13 05:46:37;;;;;;;64.00;27.20;;;;;;;;;;4966020;28;20034;-57
2021/11/13 05:49:03;;;;;;;59.22;26.10;;;;;;;;;;4965078;28;20093;-58
2021/11/13 05:51:28;;;;;;;45.05;24.52;;;;;;;;;;4964744;28;20050;-58
2021/11/13 05:53:54;;;;;;;49.08;24.83;;;;;;;;;;4961951;28;20023;-57
2021/11/13 05:56:19;;;;;;;44.38;23.52;;;;;;;;;;4965030;28;20027;-57
2021/11/13 05:58:44;;;;;;;51.65;24.65;;;;;;;;;;4962814;28;20034;-57
2021/11/13 06:01:10;;;;;;;52.53;24.20;;;;;;;;;;4963629;28;20037;-57
2021/11/13 06:03:35;;;;;;;47.10;24.65;;;;;;;;;;4960043;28;20531;-58
2021/11/13 06:06:01;;;;;;;47.35;24.20;;;;;;;;;;4962427;28;20034;-58
2021/11/13 06:08:26;;;;;;;47.05;23.70;;;;;;;;;;4964921;28;20105;-57
2021/11/13 06:10:52;;;;;;;46.17;23.33;;;;;;;;;;4965630;28;20375;-58
2021/11/13 06:13:17;;;;;;;50.80;24.63;;;;;;;;;;4965947;28;20036;-58
2021/11/13 06:15:43;;;;;;;44.20;22.67;;;;;;;;;;4964911;28;20129;-58
2021/11/13 06:18:08;;;;;;;46.08;24.25;;;;;;;;;;4963822;28;20030;-58
2021/11/13 06:20:34;;;;;;;48.78;23.77;;;;;;;;;;4961800;28;20383;-57
2021/11/13 06:22:59;;;;;;;54.25;26.92;;;;;;;;;;4965350;28;20042;-57
2021/11/13 06:25:25;;;;;;;52.05;25.15;;;;;;;;;;4965594;28;20109;-58
2021/11/13 06:27:50;;;;;;;50.50;25.50;;;;;;;;;;4977992;28;20114;-58
2021/11/13 06:30:16;;;;;;;47.20;24.00;;;;;;;;;;4960700;28;20141;-58
2021/11/13 06:32:44;;;;;;;46.58;23.63;;;;;;;;;;4962846;28;20597;-58
2021/11/13 06:35:11;;;;;;;55.40;27.45;;;;;;;;;;4962729;28;20536;-58
2021/11/13 06:37:36;;;;;;;48.50;24.88;;;;;;;;;;4962734;28;20039;-57
2021/11/13 06:40:04;;;;;;;47.95;23.67;;;;;;;;;;4959047;28;20027;-57
2021/11/13 06:42:29;;;;;;;50.67;24.08;;;;;;;;;;4964017;28;20078;-58
2021/11/13 06:44:55;;;;;;;56.65;25.75;;;;;;;;;;4962008;28;20038;-57
2021/11/13 06:47:20;;;;;;;48.53;23.42;;;;;;;;;;4961619;28;20029;-58
2021/11/13 06:49:46;;;;;;;45.15;23.05;;;;;;;;;;4963196;28;20038;-59
2021/11/13 06:52:11;;;;;;;46.60;23.25;;;;;;;;;;4964395;28;20113;-57
2021/11/13 06:54:37;;;;;;;46.53;23.35;;;;;;;;;;4961543;28;20156;-59
2021/11/13 06:57:04;;;;;;;45.75;22.80;;;;;;;;;;4963746;28;20051;-57
2021/11/13 06:59:30;;;;;;;40.42;20.58;;;;;;;;;;4952811;28;20046;-58
2021/11/13 07:01:55;;;;;;;45.17;21.58;;;;;;;;;;4964690;28;20031;-57
2021/11/13 07:04:21;;;;;;;44.45;21.48;;;;;;;;;;4958477;28;20097;-58
2021/11/13 07:06:46;;;;;;;51.03;23.77;;;;;;;;;;4960566;28;20465;-59
2021/11/13 07:09:11;;;;;;;36.70;19.17;;;;;;;;;;4962194;28;20043;-58
2021/11/13 07:11:37;;;;;;;38.85;19.10;;;;;;;;;;4956864;28;20030;-57
2021/11/13 07:14:02;;;;;;;33.65;16.83;;;;;;;;;;4961959;28;20031;-59
2021/11/13 07:16:27;;;;;;;27.73;16.15;;;;;;;;;;4964811;28;20117;-59
2021/11/13 07:18:53;;;;;;;31.90;14.38;;;;;;;;;;4963405;28;20113;-57
2021/11/13 07:21:19;;;;;;;30.38;15.02;;;;;;;;;;4960370;28;20023;-58
2021/11/13 07:23:44;;;;;;;27.40;13.75;;;;;;;;;;4963290;28;20499;-58
2021/11/13 07:26:12;;;;;;;32.72;17.80;;;;;;;;;;4960304;28;20031;-58
2021/11/13 07:28:40;;;;;;;32.35;16.23;;;;;;;;;;4963342;28;20058;-59
2021/11/13 07:31:12;;;;;;;31.90;16.98;;;;;;;;;;4960530;28;20086;-57
2021/11/13 07:33:38;;;;;;;38.83;19.42;;;;;;;;;;4961806;28;20410;-59
2021/11/13 07:36:04;;;;;;;32.38;15.77;;;;;;;;;;4962284;28;20034;-58
2021/11/13 07:38:30;;;;;;;17.98;8.48;;;;;;;;;;4964452;28;20030;-59
2021/11/13 07:40:55;;;;;;;16.33;7.82;;;;;;;;;;4962587;28;20197;-57
2021/11/13 07:43:21;;;;;;;21.45;11.20;;;;;;;;;;4963616;28;20035;-57
2021/11/13 07:45:46;;;;;;;25.55;12.82;;;;;;;;;;4976473;28;20462;-58
2021/11/13 07:48:12;;;;;;;71.38;33.47;;;;;;;;;;4963851;28;20030;-58
2021/11/13 07:50:38;;;;;;;70.30;34.78;;;;;;;;;;4963026;28;20023;-56
2021/11/13 07:53:05;;;;;;;80.95;38.13;;;;;;;;;;4963808;28;20105;-59
2021/11/13 07:55:31;;;;;;;85.15;40.38;;;;;;;;;;4961050;28;20027;-58
2021/11/13 07:57:56;;;;;;;84.82;40.67;;;;;;;;;;4962372;28;20031;-58
2021/11/13 08:00:22;;;;;;;80.10;38.20;;;;;;;;;;4962217;28;20584;-56
2021/11/13 08:02:47;;;;;;;70.65;36.83;;;;;;;;;;4961133;28;20370;-57
2021/11/13 08:05:15;;;;;;;64.20;32.25;;;;;;;;;;4959307;28;20069;-57
2021/11/13 08:07:40;;;;;;;61.88;31.90;;;;;;;;;;4960814;28;20078;-58
2021/11/13 08:10:07;;;;;;;60.35;31.70;;;;;;;;;;4962097;28;20038;-59
2021/11/13 08:12:33;;;;;;;60.05;30.40;;;;;;;;;;4959550;28;20473;-58
2021/11/13 08:14:58;;;;;;;65.93;37.17;;;;;;;;;;4957012;28;20084;-57
2021/11/13 08:17:24;;;;;;;65.68;36.55;;;;;;;;;;4960330;28;20033;-58
2021/11/13 08:19:50;;;;;;;61.72;34.35;;;;;;;;;;4959584;28;20658;-58
2021/11/13 08:22:15;;;;;;;64.53;35.03;;;;;;;;;;4963296;28;20608;-58
2021/11/13 08:24:41;;;;;;;140.65;56.90;;;;;;;;;;4963194;28;20118;-58
2021/11/13 08:27:07;;;;;;;93.03;44.08;;;;;;;;;;4976133;28;20110;-59
2021/11/13 08:29:33;;;;;;;81.78;40.85;;;;;;;;;;4961756;28;20106;-58
2021/11/13 08:31:59;;;;;;;85.68;39.28;;;;;;;;;;4975886;28;20497;-59
2021/11/13 08:34:24;;;;;;;85.78;41.80;;;;;;;;;;4958913;28;20030;-59
2021/11/13 08:36:50;;;;;;;76.72;38.67;;;;;;;;;;4959057;28;20038;-59
2021/11/13 08:39:15;;;;;;;83.38;39.88;;;;;;;;;;4958343;28;20086;-57
2021/11/13 08:41:41;;;;;;;84.25;39.50;;;;;;;;;;4960457;28;20081;-59
2021/11/13 08:44:06;;;;;;;83.40;41.17;;;;;;;;;;4961279;28;20394;-58
2021/11/13 08:46:32;;;;;;;79.35;39.30;;;;;;;;;;4963099;28;20503;-57
2021/11/13 08:48:58;;;;;;;94.00;43.95;;;;;;;;;;4961500;28;20041;-58
2021/11/13 08:51:23;;;;;;;82.40;42.65;;;;;;;;;;4962433;28;20022;-58
2021/11/13 08:53:54;;;;;;;82.13;42.95;;;;;;;;;;4957540;28;20026;-58
2021/11/13 08:56:27;;;;;;;82.53;42.67;;;;;;;;;;4960745;28;20031;-59
2021/11/13 08:58:55;;;;;;;86.85;42.20;;;;;;;;;;4963214;28;20598;-59
2021/11/13 09:01:22;;;;;;;93.38;45.53;;;;;;;;;;4958587;28;20404;-58
2021/11/13 09:03:51;;;;;;;89.57;45.08;;;;;;;;;;4967357;28;20027;-59
2021/11/13 09:06:21;;;;;;;94.20;47.22;;;;;;;;;;4962282;28;20058;-58
2021/11/13 09:08:48;;;;;;;87.68;43.42;;;;;;;;;;4968993;28;20058;-58
2021/11/13 09:11:19;;;;;;;66.80;35.38;;;;;;;;;;4965317;28;20023;-58
2021/11/13 09:13:46;;;;;;;31.35;18.45;;;;;;;;;;4963229;28;20078;-58
2021/11/13 09:16:12;;;;;;;17.70;9.93;;;;;;;;;;4962954;28;20065;-58
2021/11/13 09:18:39;;;;;;;16.45;9.07;;;;;;;;;;4964767;28;20043;-58
2021/11/13 09:21:06;;;;;;;21.70;9.10;;;;;;;;;;4961950;28;20482;-58
2021/11/13 09:23:31;;;;;;;17.15;8.70;;;;;;;;;;4960934;28;20027;-58
2021/11/13 09:25:57;;;;;;;17.90;8.52;;;;;;;;;;4959784;28;20046;-57
2021/11/13 09:28:23;;;;;;;13.60;7.18;;;;;;;;;;4959416;28;20023;-59
2021/11/13 09:30:48;;;;;;;11.23;6.45;;;;;;;;;;4963778;28;20058;-58
2021/11/13 09:33:14;;;;;;;13.25;7.75;;;;;;;;;;4961418;28;20033;-58
2021/11/13 09:35:41;;;;;;;13.20;7.50;;;;;;;;;;4960733;28;20102;-57
2021/11/13 09:38:08;;;;;;;13.18;8.35;;;;;;;;;;4970871;28;20086;-58
2021/11/13 09:40:34;;;;;;;12.27;7.03;;;;;;;;;;4961534;28;20521;-58
2021/11/13 09:43:01;;;;;;;13.88;7.35;;;;;;;;;;4960727;28;20038;-58
2021/11/13 09:45:28;;;;;;;12.50;6.70;;;;;;;;;;4962553;28;20513;-57
2021/11/13 09:47:56;;;;;;;12.90;7.00;;;;;;;;;;4960596;28;20102;-57
2021/11/13 09:50:26;;;;;;;11.68;5.55;;;;;;;;;;4961692;28;20078;-57
2021/11/13 09:52:51;;;;;;;15.18;6.25;;;;;;;;;;4959103;28;20031;-58
2021/11/13 09:55:19;;;;;;;14.45;7.10;;;;;;;;;;4961539;28;20046;-58
2021/11/13 09:57:46;;;;;;;9.48;5.95;;;;;;;;;;4961717;28;20532;-58
2021/11/13 10:00:16;;;;;;;11.25;6.07;;;;;;;;;;4960450;28;20043;-59
2021/11/13 10:02:43;;;;;;;11.48;6.88;;;;;;;;;;4961454;28;20047;-57
2021/11/13 10:05:10;;;;;;;15.75;6.88;;;;;;;;;;4962173;28;20118;-58
2021/11/13 10:07:36;;;;;;;9.27;5.68;;;;;;;;;;4960923;28;20027;-58
2021/11/13 10:10:04;;;;;;;12.50;5.43;;;;;;;;;;4960227;28;20034;-57
2021/11/13 10:12:38;;;;;;;10.82;5.82;;;;;;;;;;4958238;28;20089;-57
2021/11/13 10:15:25;;;;;;;12.32;7.55;;;;;;;;;;4958699;28;20027;-58
2021/11/13 10:18:13;;;;;;;9.45;6.28;;;;;;;;;;4961662;28;20030;-58
2021/11/13 10:20:42;;;;;;;23.35;9.75;;;;;;;;;;4964378;28;20155;-58
2021/11/13 10:23:08;;;;;;;;;;;;;;;;;;4955773;28;20600;-58
2021/11/13 10:25:34;;;;;;;16.58;7.38;;;;;;;;;;4964228;28;19957;-59
2021/11/13 10:28:12;;;;;;;32.58;19.02;;;;;;;;;;4960427;28;20046;-58
2021/11/13 10:30:39;;;;;;;62.65;37.75;;;;;;;;;;4959335;28;20029;-59
2021/11/13 10:33:05;;;;;;;16.73;10.20;;;;;;;;;;4956644;28;20027;-59
2021/11/13 10:35:44;;;;;;;11.45;8.80;;;;;;;;;;4963906;28;20030;-59
2021/11/13 10:38:15;;;;;;;9.75;5.72;;;;;;;;;;4961969;28;20027;-58
2021/11/13 10:40:50;;;;;;;10.55;7.03;;;;;;;;;;4960975;28;20031;-58
2021/11/13 10:43:16;;;;;;;10.25;7.10;;;;;;;;;;4960319;28;20121;-59
2021/11/13 10:45:55;;;;;;;9.73;5.60;;;;;;;;;;4962373;28;20442;-58
2021/11/13 10:48:22;;;;;;;16.45;8.52;;;;;;;;;;4960636;28;20489;-58
2021/11/13 10:50:47;;;;;;;9.00;5.07;;;;;;;;;;4961237;28;20418;-58
2021/11/13 10:53:13;;;;;;;7.38;4.88;;;;;;;;;;4961275;28;20041;-58
2021/11/13 10:55:40;;;;;;;4.88;3.55;;;;;;;;;;4962615;28;20573;-57
2021/11/13 10:58:31;;;;;;;7.85;4.13;;;;;;;;;;4960451;28;20031;-58
2021/11/13 11:00:58;;;;;;;14.70;7.60;;;;;;;;;;4963051;28;20041;-57
2021/11/13 11:03:30;;;;;;;6.78;4.43;;;;;;;;;;4959586;28;20497;-58
2021/11/13 11:05:56;;;;;;;8.98;5.32;;;;;;;;;;4961309;28;20486;-58
2021/11/13 11:08:29;;;;;;;18.60;7.15;;;;;;;;;;4959965;28;20034;-57
2021/11/13 11:10:55;;;;;;;11.02;5.97;;;;;;;;;;4959201;28;20379;-58
2021/11/13 11:13:41;;;;;;;7.80;4.45;;;;;;;;;;4958973;28;20049;-58
2021/11/13 11:16:32;;;;;;;7.78;4.28;;;;;;;;;;4962428;28;20161;-58
2021/11/13 11:19:09;;;;;;;6.82;4.18;;;;;;;;;;4960475;28;20489;-59
2021/11/13 11:21:56;;;;;;;6.82;4.43;;;;;;;;;;4975742;28;20442;-60
2021/11/13 11:24:32;;;;;;;9.90;4.70;;;;;;;;;;4960509;28;20369;-60
2021/11/13 11:27:00;;;;;;;12.63;6.82;;;;;;;;;;4959424;28;20106;-60
2021/11/13 11:29:31;;;;;;;11.73;6.07;;;;;;;;;;4960606;28;20074;-59
2021/11/13 11:32:00;;;;;;;9.48;5.80;;;;;;;;;;4961554;28;20493;-59
2021/11/13 11:34:32;;;;;;;8.20;4.97;;;;;;;;;;4961728;28;20058;-59
2021/11/13 11:37:04;;;;;;;9.82;5.90;;;;;;;;;;4959534;28;20027;-60
2021/11/13 11:39:30;;;;;;;12.45;7.82;;;;;;;;;;4962673;28;20394;-59
2021/11/13 11:41:56;;;;;;;11.77;6.72;;;;;;;;;;4959770;28;20038;-59
2021/11/13 11:44:22;;;;;;;8.48;5.18;;;;;;;;;;4961587;28;20481;-59
2021/11/13 11:46:48;;;;;;;10.45;4.47;;;;;;;;;;4963175;28;20457;-59
2021/11/13 11:49:15;;;;;;;10.07;4.75;;;;;;;;;;4958647;28;20050;-59
2021/11/13 11:51:41;;;;;;;10.80;6.90;;;;;;;;;;4961064;28;20033;-59
2021/11/13 11:54:08;;;;;;;16.50;6.50;;;;;;;;;;4960374;28;20035;-59
2021/11/13 11:56:35;;;;;;;33.92;20.75;;;;;;;;;;4962077;28;20062;-59
2021/11/13 11:59:02;;;;;;;25.73;11.00;;;;;;;;;;4960014;28;20030;-58
2021/11/13 12:01:30;;;;;;;14.82;8.95;;;;;;;;;;4961180;28;20489;-57
2021/11/13 12:04:29;;;;;;;20.67;13.13;;;;;;;;;;4958889;28;20038;-57
2021/11/13 12:06:56;;;;;;;24.60;16.83;;;;;;;;;;4939879;28;20038;-58
2021/11/13 12:09:24;;;;;;;20.88;11.55;;;;;;;;;;4957387;28;20130;-58
2021/11/13 12:12:18;;;;;;;27.40;16.00;;;;;;;;;;4974818;28;20042;-58
2021/11/13 12:14:45;;;;;;;20.05;11.30;;;;;;;;;;4961343;28;20031;-58
2021/11/13 12:17:29;;;;;;;16.48;9.10;;;;;;;;;;4962596;28;20031;-58
2021/11/13 12:20:04;;;;;;;19.17;10.07;;;;;;;;;;4958196;28;20034;-59
2021/11/13 12:22:42;;;;;;;106.45;48.75;;;;;;;;;;4958923;28;20102;-59
2021/11/13 12:25:11;;;;;;;34.92;17.17;;;;;;;;;;4958345;28;20019;-59
2021/11/13 12:27:37;;;;;;;66.72;29.65;;;;;;;;;;4961858;28;20042;-60
2021/11/13 12:30:03;;;;;;;39.45;18.00;;;;;;;;;;4958470;28;20030;-60
2021/11/13 12:32:38;;;;;;;51.72;25.52;;;;;;;;;;4976876;28;20034;-59
2021/11/13 12:35:12;;;;;;;35.40;15.75;;;;;;;;;;4964931;28;20027;-59
2021/11/13 12:37:38;;;;;;;36.33;17.63;;;;;;;;;;4961741;28;20496;-59
2021/11/13 12:40:04;;;;;;;41.38;19.52;;;;;;;;;;4962659;28;20026;-59
2021/11/13 12:42:30;;;;;;;56.38;25.15;;;;;;;;;;4965002;28;20038;-59
2021/11/13 12:44:58;;;;;;;49.20;23.40;;;;;;;;;;4962692;28;20026;-58
2021/11/13 12:47:26;;;;;;;50.30;22.80;;;;;;;;;;4961413;28;20031;-59
2021/11/13 12:50:19;;;;;;;55.90;25.42;;;;;;;;;;4965382;28;20512;-58
2021/11/13 12:52:54;;;;;;;34.13;18.52;;;;;;;;;;4979417;28;20027;-58
2021/11/13 12:55:37;;;;;;;34.70;18.63;;;;;;;;;;4959706;28;20024;-57
2021/11/13 12:58:12;;;;;;;31.95;18.33;;;;;;;;;;4962608;28;20027;-58
2021/11/13 13:00:53;;;;;;;32.38;16.70;;;;;;;;;;4966711;28;20578;-58
2021/11/13 13:03:31;;;;;;;46.40;24.08;;;;;;;;;;4960918;28;20089;-57
2021/11/13 13:06:06;;;;;;;49.35;28.17;;;;;;;;;;4963624;28;20035;-58
2021/11/13 13:08:32;;;;;;;89.22;38.90;;;;;;;;;;4966815;28;20493;-58
2021/11/13 13:11:03;;;;;;;208.88;78.22;;;;;;;;;;4959730;28;20077;-59
2021/11/13 13:13:28;;;;;;;198.23;71.38;;;;;;;;;;4961320;28;20035;-58
2021/11/13 13:15:58;;;;;;;284.00;100.35;;;;;;;;;;4959487;28;20054;-58
2021/11/13 13:18:24;;;;;;;;;;;;;;;;;;4961938;28;20121;-58
2021/11/13 13:20:50;;;;;;;136.63;51.40;;;;;;;;;;4960556;28;19925;-60
2021/11/13 13:23:23;;;;;;;48.85;23.35;;;;;;;;;;4962681;28;20034;-58
2021/11/13 13:25:53;;;;;;;33.70;16.42;;;;;;;;;;4964157;28;20034;-59
2021/11/13 13:28:20;;;;;;;71.85;36.63;;;;;;;;;;4960528;28;20554;-58
2021/11/13 13:30:46;;;;;;;32.47;16.58;;;;;;;;;;4963421;28;20038;-58
2021/11/13 13:33:12;;;;;;;53.35;29.08;;;;;;;;;;4962104;28;20038;-59
2021/11/13 13:35:40;;;;;;;66.68;37.03;;;;;;;;;;4963880;28;20039;-59
2021/11/13 13:38:08;;;;;;;49.72;27.38;;;;;;;;;;4965187;28;20101;-58
2021/11/13 13:40:41;;;;;;;42.38;24.35;;;;;;;;;;4965372;28;20065;-57
2021/11/13 13:43:20;;;;;;;34.15;18.63;;;;;;;;;;4961540;28;20612;-58
2021/11/13 13:45:53;;;;;;;30.17;15.63;;;;;;;;;;4961255;28;20474;-58
2021/11/13 13:48:28;;;;;;;36.92;18.10;;;;;;;;;;4962000;28;20039;-57
2021/11/13 13:50:55;;;;;;;26.75;16.25;;;;;;;;;;4964201;28;20023;-57
2021/11/13 13:53:20;;;;;;;26.08;13.93;;;;;;;;;;4960781;28;20033;-58
2021/11/13 13:55:47;;;;;;;25.70;14.88;;;;;;;;;;4964787;28;20031;-58
2021/11/13 13:58:13;;;;;;;24.75;15.30;;;;;;;;;;4959706;28;20061;-58
2021/11/13 14:00:46;;;;;;;28.00;15.60;;;;;;;;;;4962131;28;20460;-57
2021/11/13 14:03:19;;;;;;;24.05;13.73;;;;;;;;;;4962679;28;20093;-58
2021/11/13 14:05:46;;;;;;;32.22;18.00;;;;;;;;;;4964064;28;20489;-58
2021/11/13 14:08:13;;;;;;;31.08;16.60;;;;;;;;;;4961539;28;20189;-58
2021/11/13 14:10:50;;;;;;;30.98;18.25;;;;;;;;;;4962428;28;20093;-58
2021/11/13 14:13:17;;;;;;;33.78;16.02;;;;;;;;;;4961600;28;20030;-58
2021/11/13 14:15:57;;;;;;;24.27;13.27;;;;;;;;;;4966559;28;20026;-59
2021/11/13 14:18:32;;;;;;;22.80;11.40;;;;;;;;;;4964129;28;20034;-59
2021/11/13 14:20:57;;;;;;;27.38;14.65;;;;;;;;;;4957520;28;20056;-58
2021/11/13 14:23:25;;;;;;;32.63;18.63;;;;;;;;;;4960271;28;20118;-59
2021/11/13 14:26:05;;;;;;;32.75;17.17;;;;;;;;;;4963110;28;20042;-60
2021/11/13 14:28:38;;;;;;;26.08;12.95;;;;;;;;;;4961106;28;20065;-59